createdAt,value
2023-04-25T00:01:13.989Z,3.92
2023-04-25T00:03:41.518Z,5.40
2023-04-25T00:06:09.455Z,8.25
2023-04-25T00:08:37.096Z,5.90
2023-04-25T00:11:04.653Z,5.38
2023-04-25T00:13:31.940Z,3.60
2023-04-25T00:15:59.572Z,7.68
2023-04-25T00:18:29.866Z,3.58
2023-04-25T00:20:57.357Z,4.25
2023-04-25T00:23:25.012Z,3.97
2023-04-25T00:25:52.400Z,3.65
2023-04-25T00:28:19.777Z,2.75
2023-04-25T00:30:47.772Z,4.45
2023-04-25T00:33:15.139Z,5.35
2023-04-25T00:35:42.693Z,3.53
2023-04-25T00:38:10.009Z,3.08
2023-04-25T00:40:37.353Z,4.07
2023-04-25T00:43:05.237Z,6.80
2023-04-25T00:45:32.577Z,6.68
2023-04-25T00:47:59.905Z,4.38
2023-04-25T00:50:27.274Z,3.85
2023-04-25T00:52:54.727Z,4.03
2023-04-25T00:55:22.134Z,6.65
2023-04-25T00:57:50.284Z,3.88
2023-04-25T01:00:18.179Z,3.70
2023-04-25T01:02:46.085Z,4.70
2023-04-25T01:05:14.373Z,5.45
2023-04-25T01:07:42.088Z,4.88
2023-04-25T01:10:10.025Z,4.25
2023-04-25T01:12:38.551Z,3.70
2023-04-25T01:15:06.362Z,4.60
2023-04-25T01:17:35.174Z,5.20
2023-04-25T01:20:05.121Z,5.13
2023-04-25T01:22:33.277Z,5.38
2023-04-25T01:25:01.083Z,8.05
2023-04-25T01:27:29.041Z,5.70
2023-04-25T01:29:56.770Z,4.68
2023-04-25T01:32:24.572Z,5.55
2023-04-25T01:34:51.891Z,3.30
2023-04-25T01:37:21.044Z,4.30
2023-04-25T01:39:49.712Z,6.70
2023-04-25T01:42:17.058Z,4.93
2023-04-25T01:44:44.401Z,3.80
2023-04-25T01:47:12.162Z,5.70
2023-04-25T01:49:39.558Z,3.90
2023-04-25T01:52:06.922Z,8.73
2023-04-25T01:54:34.216Z,4.25
2023-04-25T01:57:02.722Z,3.88
2023-04-25T01:59:30.532Z,5.43
2023-04-25T02:02:20.727Z,7.35
2023-04-25T02:04:48.294Z,5.68
2023-04-25T02:07:16.783Z,4.40
2023-04-25T02:09:49.573Z,5.83
2023-04-25T02:12:18.399Z,5.15
2023-04-25T02:15:06.975Z,7.43
2023-04-25T02:17:46.181Z,5.45
2023-04-25T02:20:13.626Z,7.00
2023-04-25T02:22:40.947Z,8.18
2023-04-25T02:25:08.852Z,6.00
2023-04-25T02:27:36.954Z,5.60
2023-04-25T02:30:05.848Z,5.50
2023-04-25T02:32:35.337Z,7.50
2023-04-25T02:35:04.955Z,6.40
2023-04-25T02:37:32.992Z,6.13
2023-04-25T02:40:00.369Z,5.30
2023-04-25T02:42:28.173Z,5.78
2023-04-25T02:44:55.620Z,4.95
2023-04-25T02:47:23.021Z,7.85
2023-04-25T02:49:51.038Z,5.55
2023-04-25T02:52:18.405Z,7.40
2023-04-25T02:54:51.566Z,4.70
2023-04-25T02:57:18.902Z,5.47
2023-04-25T02:59:46.374Z,7.18
2023-04-25T03:02:13.735Z,8.40
2023-04-25T03:04:41.343Z,5.10
2023-04-25T03:07:09.069Z,8.68
2023-04-25T03:09:36.482Z,6.15
2023-04-25T03:12:04.328Z,6.28
2023-04-25T03:14:32.765Z,6.28
2023-04-25T03:17:00.192Z,5.65
2023-04-25T03:19:27.565Z,11.07
2023-04-25T03:21:54.936Z,5.75
2023-04-25T03:24:23.066Z,5.10
2023-04-25T03:26:50.558Z,4.10
2023-04-25T03:29:17.892Z,5.35
2023-04-25T03:31:46.550Z,8.68
2023-04-25T03:34:15.661Z,6.25
2023-04-25T03:36:43.114Z,7.68
2023-04-25T03:39:11.311Z,5.95
2023-04-25T03:41:39.687Z,6.32
2023-04-25T03:44:13.052Z,5.67
2023-04-25T03:46:41.238Z,3.85
2023-04-25T03:49:08.666Z,4.35
2023-04-25T03:52:08.319Z,7.10
2023-04-25T03:54:39.610Z,5.68
2023-04-25T03:57:11.378Z,3.92
2023-04-25T03:59:40.675Z,6.30
2023-04-25T04:02:10.432Z,4.93
2023-04-25T04:04:38.562Z,4.20
2023-04-25T04:07:07.057Z,7.05
2023-04-25T04:09:40.327Z,6.25
2023-04-25T04:12:11.364Z,5.10
2023-04-25T04:14:41.345Z,9.23
2023-04-25T04:17:08.649Z,3.25
2023-04-25T04:19:36.379Z,6.82
2023-04-25T04:22:09.526Z,5.20
2023-04-25T04:24:36.864Z,3.55
2023-04-25T04:27:07.344Z,4.90
2023-04-25T04:29:40.773Z,3.85
2023-04-25T04:32:26.282Z,7.30
2023-04-25T04:34:55.965Z,3.67
2023-04-25T04:37:25.086Z,4.65
2023-04-25T04:39:52.973Z,4.90
2023-04-25T04:42:32.569Z,3.42
2023-04-25T04:45:23.341Z,6.95
2023-04-25T04:48:09.717Z,5.50
2023-04-25T04:50:57.308Z,5.10
2023-04-25T04:53:59.369Z,6.93
2023-04-25T04:56:53.526Z,3.78
2023-04-25T04:59:36.533Z,7.93
2023-04-25T05:02:23.503Z,5.95
2023-04-25T05:05:11.361Z,8.25
2023-04-25T05:07:57.076Z,10.00
2023-04-25T05:10:47.352Z,14.85
2023-04-25T05:13:31.414Z,9.02
2023-04-25T05:16:17.318Z,8.05
2023-04-25T05:19:11.771Z,4.70
2023-04-25T05:21:51.253Z,4.70
2023-04-25T05:24:38.820Z,4.72
2023-04-25T05:27:32.007Z,8.18
2023-04-25T05:30:17.389Z,6.32
2023-04-25T05:33:03.467Z,5.30
2023-04-25T05:35:31.081Z,8.32
2023-04-25T05:37:58.545Z,9.60
2023-04-25T05:40:40.846Z,6.32
2023-04-25T05:43:33.951Z,8.25
2023-04-25T05:46:19.796Z,8.50
2023-04-25T05:49:06.735Z,6.88
2023-04-25T05:51:57.165Z,10.13
2023-04-25T05:54:47.681Z,14.27
2023-04-25T05:57:25.783Z,7.57
2023-04-25T05:59:54.527Z,9.63
2023-04-25T06:02:23.196Z,11.13
2023-04-25T06:04:52.186Z,7.68
2023-04-25T06:07:20.957Z,8.98
2023-04-25T06:09:48.325Z,6.22
2023-04-25T06:12:16.405Z,5.18
2023-04-25T06:14:43.895Z,6.95
2023-04-25T06:17:11.241Z,6.78
2023-04-25T06:19:38.870Z,7.97
2023-04-25T06:22:07.747Z,6.88
2023-04-25T06:24:36.441Z,8.25
2023-04-25T06:27:05.307Z,7.43
2023-04-25T06:29:32.692Z,3.58
2023-04-25T06:32:00.135Z,6.03
2023-04-25T06:34:27.558Z,8.48
2023-04-25T06:36:54.903Z,7.25
2023-04-25T06:39:24.345Z,6.20
2023-04-25T06:41:51.910Z,7.65
2023-04-25T06:44:51.289Z,6.88
2023-04-25T06:47:20.259Z,10.02
2023-04-25T06:49:47.699Z,8.43
2023-04-25T06:52:15.373Z,7.00
2023-04-25T06:54:43.046Z,8.35
2023-04-25T06:57:20.604Z,10.02
2023-04-25T06:59:48.060Z,15.00
2023-04-25T07:02:15.845Z,10.25
2023-04-25T07:04:43.792Z,8.75
2023-04-25T07:07:11.310Z,8.10
2023-04-25T07:09:45.768Z,9.23
2023-04-25T07:12:13.164Z,9.75
2023-04-25T07:14:40.657Z,6.60
2023-04-25T07:17:09.390Z,7.55
2023-04-25T07:19:38.394Z,10.05
2023-04-25T07:22:07.836Z,8.45
2023-04-25T07:24:37.013Z,6.60
2023-04-25T07:27:08.685Z,8.13
2023-04-25T07:32:23.426Z,6.63
2023-04-25T07:34:51.306Z,5.45
2023-04-25T07:37:19.848Z,7.97
2023-04-25T07:40:04.901Z,4.65
2023-04-25T07:42:33.454Z,5.57
2023-04-25T07:45:01.927Z,6.10
2023-04-25T07:47:29.877Z,10.13
2023-04-25T07:49:58.863Z,10.25
2023-04-25T07:52:26.321Z,7.05
2023-04-25T07:55:01.869Z,9.20
2023-04-25T07:57:41.709Z,7.40
2023-04-25T08:00:12.517Z,6.43
2023-04-25T08:02:47.270Z,8.45
2023-04-25T08:05:20.325Z,5.57
2023-04-25T08:07:54.807Z,5.35
2023-04-25T08:10:24.068Z,7.40
2023-04-25T08:12:51.482Z,7.43
2023-04-25T08:15:19.203Z,9.13
2023-04-25T08:17:46.762Z,10.02
2023-04-25T08:20:14.352Z,8.30
2023-04-25T08:22:42.353Z,8.40
2023-04-25T08:25:27.504Z,6.63
2023-04-25T08:27:55.069Z,8.93
2023-04-25T08:30:23.586Z,7.10
2023-04-25T08:32:52.137Z,8.23
2023-04-25T08:35:27.850Z,7.47
2023-04-25T08:37:55.393Z,9.50
2023-04-25T08:40:27.155Z,10.60
2023-04-25T08:43:04.390Z,5.50
2023-04-25T08:45:32.983Z,7.18
2023-04-25T08:48:00.925Z,3.40
2023-04-25T08:50:28.486Z,5.57
2023-04-25T08:52:56.337Z,5.35
2023-04-25T08:55:24.045Z,4.97
2023-04-25T08:57:55.547Z,3.08
2023-04-25T09:00:23.088Z,4.93
2023-04-25T09:02:50.935Z,5.80
2023-04-25T09:05:20.886Z,4.90
2023-04-25T09:07:50.707Z,6.38
2023-04-25T09:10:18.513Z,5.57
2023-04-25T09:12:46.180Z,4.93
2023-04-25T09:15:20.546Z,6.78
2023-04-25T09:18:07.111Z,5.93
2023-04-25T09:20:56.370Z,9.95
2023-04-25T09:23:28.329Z,6.72
2023-04-25T09:25:55.761Z,6.45
2023-04-25T09:28:28.588Z,3.30
2023-04-25T09:30:59.106Z,6.07
2023-04-25T09:33:39.104Z,5.10
2023-04-25T09:36:10.324Z,2.90
2023-04-25T09:38:58.297Z,3.83
2023-04-25T09:41:38.642Z,13.90
2023-04-25T09:44:06.195Z,7.20
2023-04-25T09:46:39.396Z,3.15
2023-04-25T09:49:22.199Z,4.85
2023-04-25T09:52:06.381Z,4.82
2023-04-25T09:54:40.646Z,4.75
2023-04-25T09:57:16.253Z,8.63
2023-04-25T09:59:48.173Z,3.78
2023-04-25T10:02:21.219Z,6.13
2023-04-25T10:04:55.225Z,7.43
2023-04-25T10:07:39.214Z,4.70
2023-04-25T10:10:10.384Z,9.32
2023-04-25T10:12:37.786Z,3.60
2023-04-25T10:15:05.469Z,9.40
2023-04-25T10:17:32.903Z,6.32
2023-04-25T10:20:01.040Z,9.45
2023-04-25T10:22:35.812Z,2.75
2023-04-25T10:25:05.173Z,2.55
2023-04-25T10:27:32.905Z,5.10
2023-04-25T10:30:11.042Z,4.47
2023-04-25T10:32:38.439Z,6.43
2023-04-25T10:35:32.706Z,4.18
2023-04-25T10:38:13.600Z,3.37
2023-04-25T10:40:41.000Z,4.47
2023-04-25T10:43:39.883Z,12.18
2023-04-25T10:46:30.872Z,5.78
2023-04-25T10:48:59.535Z,4.43
2023-04-25T10:51:29.546Z,3.25
2023-04-25T10:54:01.590Z,3.10
2023-04-25T10:56:33.143Z,3.53
2023-04-25T10:59:12.570Z,3.70
2023-04-25T11:01:45.222Z,3.33
2023-04-25T11:04:32.329Z,3.78
2023-04-25T11:07:09.620Z,4.60
2023-04-25T11:09:39.031Z,3.92
2023-04-25T11:12:07.904Z,1.67
2023-04-25T11:14:35.410Z,4.32
2023-04-25T11:17:03.631Z,2.03
2023-04-25T11:19:31.432Z,3.85
2023-04-25T11:21:59.491Z,3.80
2023-04-25T11:24:30.789Z,3.45
2023-04-25T11:26:59.529Z,3.33
2023-04-25T11:29:30.359Z,3.22
2023-04-25T11:31:59.253Z,3.00
2023-04-25T11:34:27.066Z,6.68
2023-04-25T11:36:54.582Z,3.60
2023-04-25T11:43:58.916Z,4.00
2023-04-25T11:46:26.549Z,3.00
2023-04-25T11:48:54.466Z,5.10
2023-04-25T11:51:32.205Z,5.80
2023-04-25T11:54:18.370Z,5.93
2023-04-25T11:56:46.315Z,4.13
2023-04-25T11:59:14.170Z,3.40
2023-04-25T12:01:51.340Z,3.60
2023-04-25T12:04:21.007Z,3.03
2023-04-25T12:06:52.369Z,2.25
2023-04-25T12:09:22.312Z,2.50
2023-04-25T12:11:53.871Z,2.53
2023-04-25T12:14:29.802Z,3.33
2023-04-25T12:17:00.937Z,2.30
2023-04-25T12:19:34.366Z,2.70
2023-04-25T12:22:02.493Z,2.30
2023-04-25T12:24:29.868Z,3.50
2023-04-25T12:27:01.987Z,3.72
2023-04-25T12:29:34.858Z,2.70
2023-04-25T12:32:09.795Z,2.75
2023-04-25T12:34:37.428Z,5.45
2023-04-25T12:37:04.960Z,2.63
2023-04-25T12:39:32.357Z,3.03
2023-04-25T12:42:00.754Z,1.95
2023-04-25T12:44:28.059Z,2.53
2023-04-25T12:46:56.026Z,2.83
2023-04-25T12:49:23.550Z,1.38
2023-04-25T12:51:52.549Z,3.15
2023-04-25T12:54:19.941Z,6.63
2023-04-25T12:56:47.371Z,3.88
2023-04-25T12:59:15.068Z,2.78
2023-04-25T13:01:42.493Z,3.22
2023-04-25T13:04:09.988Z,3.15
2023-04-25T13:06:37.481Z,3.63
2023-04-25T13:09:05.289Z,2.58
2023-04-25T13:11:32.662Z,2.35
2023-04-25T13:14:00.040Z,4.18
2023-04-25T13:16:27.883Z,2.22
2023-04-25T13:18:57.380Z,2.70
2023-04-25T13:21:24.865Z,1.73
2023-04-25T13:23:52.440Z,3.28
2023-04-25T13:26:19.933Z,2.28
2023-04-25T13:28:47.247Z,2.22
2023-04-25T13:31:14.570Z,2.47
2023-04-25T13:33:41.878Z,2.20
2023-04-25T13:36:09.272Z,3.67
2023-04-25T13:38:36.642Z,6.38
2023-04-25T13:41:04.217Z,2.95
2023-04-25T13:43:31.616Z,5.00
2023-04-25T13:45:59.274Z,3.10
2023-04-25T13:48:26.661Z,3.17
2023-04-25T13:50:54.022Z,5.45
2023-04-25T13:53:22.156Z,2.67
2023-04-25T13:55:49.525Z,2.47
2023-04-25T13:58:16.972Z,3.65
2023-04-25T14:00:46.943Z,4.53
2023-04-25T14:03:14.357Z,1.70
2023-04-25T14:05:42.055Z,2.15
2023-04-25T14:08:10.253Z,3.83
2023-04-25T14:10:38.006Z,2.72
2023-04-25T14:13:10.990Z,4.40
2023-04-25T14:15:38.543Z,3.22
2023-04-25T14:18:06.572Z,4.05
2023-04-25T14:20:35.467Z,3.15
2023-04-25T14:23:02.847Z,2.15
2023-04-25T14:25:31.296Z,2.35
2023-04-25T14:27:58.652Z,2.65
2023-04-25T14:30:26.167Z,2.53
2023-04-25T14:32:53.530Z,2.15
2023-04-25T14:35:21.502Z,2.95
2023-04-25T14:37:48.888Z,1.83
2023-04-25T14:40:16.294Z,1.42
2023-04-25T14:42:43.749Z,3.22
2023-04-25T14:45:11.429Z,2.58
2023-04-25T14:47:39.058Z,1.83
2023-04-25T14:50:07.804Z,1.77
2023-04-25T14:52:35.514Z,1.98
2023-04-25T14:55:06.045Z,3.20
2023-04-25T14:57:34.154Z,1.80
2023-04-25T15:00:01.735Z,3.22
2023-04-25T15:02:29.556Z,2.33
2023-04-25T15:04:57.243Z,2.58
2023-04-25T15:07:24.929Z,1.13
2023-04-25T15:09:54.257Z,1.70
2023-04-25T15:12:21.661Z,1.10
2023-04-25T15:14:49.035Z,1.25
2023-04-25T15:17:16.532Z,1.83
2023-04-25T15:19:43.984Z,1.20
2023-04-25T15:22:14.014Z,5.22
2023-04-25T15:24:41.386Z,1.63
2023-04-25T15:27:09.488Z,1.63
2023-04-25T15:29:36.913Z,2.40
2023-04-25T15:32:04.541Z,2.17
2023-04-25T15:34:31.905Z,4.30
2023-04-25T15:36:59.309Z,2.00
2023-04-25T15:39:26.703Z,1.88
2023-04-25T15:41:54.101Z,1.88
2023-04-25T15:44:21.482Z,4.65
2023-04-25T15:46:49.978Z,4.35
2023-04-25T15:49:19.406Z,2.92
2023-04-25T15:51:46.964Z,4.07
2023-04-25T15:54:14.345Z,2.65
2023-04-25T15:56:41.744Z,2.08
2023-04-25T15:59:11.686Z,1.67
2023-04-25T16:01:40.372Z,2.47
2023-04-25T16:04:08.463Z,1.95
2023-04-25T16:06:35.962Z,2.58
2023-04-25T16:09:12.418Z,2.22
2023-04-25T16:13:03.409Z,5.20
2023-04-25T16:16:02.004Z,2.13
2023-04-25T16:18:35.838Z,7.75
2023-04-25T16:21:06.318Z,3.42
2023-04-25T16:26:53.163Z,4.05
2023-04-25T16:29:23.595Z,5.53
2023-04-25T16:31:51.220Z,5.07
2023-04-25T16:34:18.757Z,4.25
2023-04-25T16:36:46.152Z,4.28
2023-04-25T16:42:12.509Z,6.13
2023-04-25T16:45:09.907Z,3.20
2023-04-25T16:47:40.025Z,4.45
2023-04-25T16:50:15.220Z,4.55
2023-04-25T16:52:51.118Z,5.53
2023-04-25T16:55:18.912Z,6.13
2023-04-25T17:08:29.624Z,32.08
2023-04-25T17:10:57.279Z,5.70
2023-04-25T17:13:30.818Z,6.65
2023-04-25T17:15:59.778Z,7.78
2023-04-25T17:18:28.162Z,6.10
2023-04-25T17:20:55.828Z,6.57
2023-04-25T17:23:23.323Z,6.57
2023-04-25T17:25:50.991Z,6.45
2023-04-25T17:28:18.511Z,5.25
2023-04-25T17:30:46.319Z,9.80
2023-04-25T17:33:14.044Z,5.25
2023-04-25T17:35:41.548Z,6.07
2023-04-25T17:38:08.928Z,5.55
2023-04-25T17:40:36.829Z,7.43
2023-04-25T17:43:04.277Z,7.25
2023-04-25T17:45:34.754Z,8.70
2023-04-25T17:48:03.725Z,8.35
2023-04-25T17:50:31.727Z,7.63
2023-04-25T17:52:59.728Z,6.93
2023-04-25T17:55:27.158Z,6.55
2023-04-25T17:57:54.673Z,6.90
2023-04-25T18:00:22.042Z,6.88
2023-04-25T18:02:51.185Z,7.22
2023-04-25T18:05:19.147Z,6.25
2023-04-25T18:07:46.618Z,8.13
2023-04-25T18:10:14.642Z,5.90
2023-04-25T18:12:43.035Z,7.35
2023-04-25T18:15:10.622Z,11.50
2023-04-25T18:17:40.549Z,5.55
2023-04-25T18:20:14.927Z,5.68
2023-04-25T18:22:42.930Z,2.28
2023-04-25T18:25:11.143Z,2.83
2023-04-25T18:27:38.872Z,6.85
2023-04-25T18:30:08.880Z,2.90
2023-04-25T18:32:36.759Z,3.60
2023-04-25T18:35:04.710Z,4.07
2023-04-25T18:37:32.050Z,5.55
2023-04-25T18:39:59.433Z,2.70
2023-04-25T18:42:26.846Z,5.97
2023-04-25T18:44:54.144Z,4.45
2023-04-25T18:47:21.445Z,6.18
2023-04-25T18:49:50.754Z,5.75
2023-04-25T18:52:19.072Z,7.95
2023-04-25T18:54:46.377Z,8.32
2023-04-25T18:57:17.807Z,5.35
2023-04-25T18:59:46.222Z,6.80
2023-04-25T19:02:16.009Z,8.02
2023-04-25T19:04:43.946Z,6.63
2023-04-25T19:07:11.484Z,6.30
2023-04-25T19:09:38.812Z,6.88
2023-04-25T19:12:06.352Z,7.43
2023-04-25T19:14:33.769Z,10.45
2023-04-25T19:17:01.125Z,9.98
2023-04-25T19:19:28.565Z,9.13
2023-04-25T19:21:55.944Z,9.90
2023-04-25T19:24:23.322Z,10.30
2023-04-25T19:26:50.674Z,8.35
2023-04-25T19:29:18.155Z,9.07
2023-04-25T19:31:45.720Z,8.43
2023-04-25T19:34:13.825Z,8.00
2023-04-25T19:36:41.912Z,8.20
2023-04-25T19:39:09.324Z,9.15
2023-04-25T19:41:38.145Z,8.57
2023-04-25T19:44:07.345Z,9.80
2023-04-25T19:46:35.525Z,10.25
2023-04-25T19:49:06.060Z,9.40
2023-04-25T19:51:34.520Z,9.30
2023-04-25T19:54:01.818Z,10.23
2023-04-25T19:56:29.658Z,11.77
2023-04-25T19:58:58.466Z,12.80
2023-04-25T20:01:26.231Z,11.30
2023-04-25T20:03:54.031Z,9.00
2023-04-25T20:06:21.885Z,7.70
2023-04-25T20:08:50.541Z,9.48
2023-04-25T20:11:17.924Z,11.82
2023-04-25T20:13:45.430Z,8.27
2023-04-25T20:16:12.927Z,8.60
2023-04-25T20:18:40.358Z,7.18
2023-04-25T20:21:08.573Z,7.65
2023-04-25T20:23:36.771Z,7.75
2023-04-25T20:26:05.062Z,8.98
2023-04-25T20:28:33.129Z,7.78
2023-04-25T20:31:00.685Z,8.90
2023-04-25T20:33:28.161Z,7.10
2023-04-25T20:35:55.529Z,9.02
2023-04-25T20:38:23.332Z,11.48
2023-04-25T20:40:50.977Z,9.25
2023-04-25T20:43:19.847Z,8.75
2023-04-25T20:45:47.272Z,9.25
2023-04-25T20:48:15.210Z,8.73
2023-04-25T20:50:43.331Z,9.93
2023-04-25T20:53:10.647Z,11.20
2023-04-25T20:55:38.067Z,9.35
2023-04-25T20:58:06.878Z,9.45
2023-04-25T21:00:34.601Z,13.18
2023-04-25T21:03:05.198Z,10.05
2023-04-25T21:05:32.682Z,9.23
2023-04-25T21:07:59.990Z,12.75
2023-04-25T21:10:27.439Z,11.82
2023-04-25T21:12:56.555Z,11.20
2023-04-25T21:15:24.734Z,10.68
2023-04-25T21:17:52.331Z,9.85
2023-04-25T21:20:20.751Z,8.70
2023-04-25T21:22:50.379Z,9.95
2023-04-25T21:25:20.782Z,11.88
2023-04-25T21:27:49.538Z,11.10
2023-04-25T21:30:19.081Z,10.70
2023-04-25T21:32:47.730Z,13.18
2023-04-25T21:35:15.262Z,10.27
2023-04-25T21:37:43.179Z,10.52
2023-04-25T21:40:10.657Z,9.13
2023-04-25T21:42:38.113Z,11.02
2023-04-25T21:45:07.245Z,10.48
2023-04-25T21:47:34.606Z,11.02
2023-04-25T21:50:01.980Z,10.18
2023-04-25T21:52:29.344Z,10.80
2023-04-25T21:54:56.741Z,11.25
2023-04-25T21:57:24.160Z,9.93
2023-04-25T21:59:51.444Z,9.23
2023-04-25T22:02:19.333Z,7.65
2023-04-25T22:04:49.581Z,7.93
2023-04-25T22:07:16.985Z,8.82
2023-04-25T22:09:54.472Z,9.98
2023-04-25T22:12:23.536Z,7.63
2023-04-25T22:14:51.261Z,11.25
2023-04-25T22:17:19.381Z,8.13
2023-04-25T22:19:47.095Z,9.68
2023-04-25T22:22:14.582Z,7.00
2023-04-25T22:24:42.168Z,8.68
2023-04-25T22:27:11.059Z,7.43
2023-04-25T22:29:38.629Z,10.55
2023-04-25T22:32:05.992Z,11.00
2023-04-25T22:34:33.664Z,9.23
2023-04-25T22:37:00.996Z,12.35
2023-04-25T22:39:28.302Z,9.93
2023-04-25T22:41:55.909Z,9.73
2023-04-25T22:44:23.724Z,9.63
2023-04-25T22:46:51.013Z,9.82
2023-04-25T22:49:18.480Z,12.65
2023-04-25T22:51:45.859Z,10.32
2023-04-25T22:54:13.181Z,9.20
2023-04-25T22:56:40.580Z,12.65
2023-04-25T22:59:11.468Z,10.63
2023-04-25T23:01:38.825Z,9.23
2023-04-25T23:04:07.855Z,14.02
2023-04-25T23:06:35.569Z,12.13
2023-04-25T23:09:02.957Z,10.50
2023-04-25T23:11:30.327Z,12.32
2023-04-25T23:13:58.758Z,11.32
2023-04-25T23:16:26.466Z,11.48
2023-04-25T23:18:54.182Z,12.98
2023-04-25T23:21:21.802Z,14.48
2023-04-25T23:23:49.396Z,14.73
2023-04-25T23:26:16.786Z,11.82
2023-04-25T23:28:45.140Z,14.50
2023-04-25T23:31:12.570Z,15.23
2023-04-25T23:33:39.907Z,15.18
2023-04-25T23:36:07.680Z,18.88
2023-04-25T23:38:35.084Z,16.10
2023-04-25T23:41:02.385Z,19.15
2023-04-25T23:43:29.712Z,18.85
2023-04-25T23:45:57.070Z,18.38
2023-04-25T23:48:24.673Z,20.10
2023-04-25T23:50:52.043Z,19.35
2023-04-25T23:53:19.392Z,21.23
2023-04-25T23:55:48.094Z,21.05
2023-04-25T23:58:15.578Z,21.67
